Time;durP1;ratioP1;P1;durP2;ratioP2;P2;SDS_P1;SDS_P2;PMS_P1;PMS_P2;Temp;Humidity;BMP_temperature;BMP_pressure;BME280_temperature;BME280_humidity;BME280_pressure;Samples;Min_cycle;Max_cycle;Signal;HPM_P1;HPM_P2
2022/07/24 00:01:37;;;;;;;13.30;11.93;;;;;;;;;;5092143;28;20187;-82
2022/07/24 00:04:05;;;;;;;11.10;8.80;;;;;;;;;;5094923;28;20197;-82
2022/07/24 00:06:34;;;;;;;13.60;12.20;;;;;;;;;;5077005;28;20223;-83
2022/07/24 00:09:03;;;;;;;15.13;11.97;;;;;;;;;;5067173;28;20208;-83
2022/07/24 00:11:32;;;;;;;12.67;10.07;;;;;;;;;;5089878;28;20220;-82
2022/07/24 00:14:01;;;;;;;14.30;12.80;;;;;;;;;;5094958;28;20294;-83
2022/07/24 00:16:29;;;;;;;15.20;10.80;;;;;;;;;;5095072;28;20196;-83
2022/07/24 00:18:59;;;;;;;15.23;12.73;;;;;;;;;;5076601;28;20221;-83
2022/07/24 00:21:28;;;;;;;15.20;12.07;;;;;;;;;;5095024;28;20200;-83
2022/07/24 00:23:57;;;;;;;18.77;13.80;;;;;;;;;;5075832;28;20199;-83
2022/07/24 00:26:25;;;;;;;13.07;10.43;;;;;;;;;;5076452;28;20198;-83
2022/07/24 00:28:54;;;;;;;16.87;13.07;;;;;;;;;;5062762;28;20194;-82
2022/07/24 00:31:22;;;;;;;15.67;14.10;;;;;;;;;;5076668;28;20244;-83
2022/07/24 00:33:51;;;;;;;13.97;12.00;;;;;;;;;;5076707;28;20212;-83
2022/07/24 00:36:21;;;;;;;10.97;9.60;;;;;;;;;;5076561;28;20221;-83
2022/07/24 00:38:49;;;;;;;17.93;13.00;;;;;;;;;;5076604;28;20215;-83
2022/07/24 00:41:18;;;;;;;15.87;12.40;;;;;;;;;;5094169;28;20203;-83
2022/07/24 00:44:06;;;;;;;15.83;11.93;;;;;;;;;;5076140;28;20207;-84
2022/07/24 00:46:34;;;;;;;10.47;8.77;;;;;;;;;;5063179;28;20204;-83
2022/07/24 00:49:04;;;;;;;14.17;10.87;;;;;;;;;;5076195;28;20196;-84
2022/07/24 00:51:47;;;;;;;14.13;10.80;;;;;;;;;;5088786;28;20208;-84
2022/07/24 00:54:22;;;;;;;12.57;10.50;;;;;;;;;;5093053;28;20236;-83
2022/07/24 00:56:52;;;;;;;9.73;8.43;;;;;;;;;;5093854;28;20208;-83
2022/07/24 00:59:21;;;;;;;13.80;12.33;;;;;;;;;;5092865;28;20306;-84
2022/07/24 01:01:50;;;;;;;11.00;8.80;;;;;;;;;;5076070;28;20199;-84
2022/07/24 01:04:18;;;;;;;9.27;6.87;;;;;;;;;;5094135;28;20205;-84
2022/07/24 01:06:49;;;;;;;5.20;4.63;;;;;;;;;;5077827;28;20194;-84
2022/07/24 01:09:18;;;;;;;8.27;7.00;;;;;;;;;;5094082;28;20194;-83
2022/07/24 01:11:46;;;;;;;4.37;3.43;;;;;;;;;;5092839;28;20293;-83
2022/07/24 01:14:15;;;;;;;9.50;8.37;;;;;;;;;;5093975;28;20209;-84
2022/07/24 01:16:44;;;;;;;11.73;8.73;;;;;;;;;;5076088;28;20201;-84
2022/07/24 01:19:13;;;;;;;8.77;7.13;;;;;;;;;;5076096;28;20217;-83
2022/07/24 01:21:48;;;;;;;4.83;3.93;;;;;;;;;;5075868;28;20198;-84
2022/07/24 01:24:16;;;;;;;9.77;7.20;;;;;;;;;;5074207;28;20209;-83
2022/07/24 01:26:46;;;;;;;9.90;6.70;;;;;;;;;;5087619;28;20209;-83
2022/07/24 01:29:15;;;;;;;7.07;5.33;;;;;;;;;;5093457;28;20458;-84
2022/07/24 01:31:43;;;;;;;8.70;5.43;;;;;;;;;;5075647;28;20202;-84
2022/07/24 01:34:12;;;;;;;3.03;2.77;;;;;;;;;;5093251;28;20193;-83
2022/07/24 01:36:41;;;;;;;13.17;7.90;;;;;;;;;;5093632;28;20202;-83
2022/07/24 01:39:11;;;;;;;6.57;3.93;;;;;;;;;;5062035;28;20223;-83
2022/07/24 01:41:39;;;;;;;5.50;4.77;;;;;;;;;;5076039;28;20210;-83
2022/07/24 01:44:07;;;;;;;4.13;2.73;;;;;;;;;;5075753;28;20199;-83
2022/07/24 01:46:36;;;;;;;4.77;4.13;;;;;;;;;;5072424;28;20269;-83
2022/07/24 01:49:05;;;;;;;9.40;6.17;;;;;;;;;;5073104;28;20201;-84
2022/07/24 01:51:34;;;;;;;12.23;7.10;;;;;;;;;;5075798;28;20222;-83
2022/07/24 01:54:03;;;;;;;5.00;3.73;;;;;;;;;;5071942;28;20238;-83
2022/07/24 01:56:33;;;;;;;10.00;5.97;;;;;;;;;;5072592;28;20216;-83
2022/07/24 01:59:02;;;;;;;2.00;1.90;;;;;;;;;;5089048;28;20225;-83
2022/07/24 02:01:35;;;;;;;3.93;3.33;;;;;;;;;;5074325;28;20205;-83
2022/07/24 02:04:04;;;;;;;0.83;0.73;;;;;;;;;;5087149;28;20207;-82
2022/07/24 02:06:32;;;;;;;5.87;3.87;;;;;;;;;;5092785;28;20205;-83
2022/07/24 02:09:00;;;;;;;9.40;4.20;;;;;;;;;;5092686;28;20205;-83
2022/07/24 02:11:30;;;;;;;7.83;5.67;;;;;;;;;;5075570;28;20208;-83
2022/07/24 02:14:00;;;;;;;5.00;3.13;;;;;;;;;;5076822;28;20215;-83
2022/07/24 02:16:28;;;;;;;13.90;5.43;;;;;;;;;;5062601;28;20205;-83
2022/07/24 02:18:57;;;;;;;10.87;7.13;;;;;;;;;;5075689;28;20331;-83
2022/07/24 02:21:25;;;;;;;11.17;7.43;;;;;;;;;;5075804;28;20201;-83
2022/07/24 02:23:54;;;;;;;10.37;6.80;;;;;;;;;;5092766;28;20209;-83
2022/07/24 02:26:22;;;;;;;7.17;5.10;;;;;;;;;;5075255;28;20211;-83
2022/07/24 02:28:51;;;;;;;9.70;6.93;;;;;;;;;;5075543;28;20226;-83
2022/07/24 02:31:20;;;;;;;11.60;4.67;;;;;;;;;;5075217;28;20228;-83
2022/07/24 02:33:49;;;;;;;13.07;6.57;;;;;;;;;;5075526;28;20252;-83
2022/07/24 02:36:17;;;;;;;12.80;7.00;;;;;;;;;;5076013;28;20222;-83
2022/07/24 02:38:46;;;;;;;6.73;5.47;;;;;;;;;;5092039;28;20277;-83
2022/07/24 02:41:14;;;;;;;8.37;5.93;;;;;;;;;;5075005;28;20265;-83
2022/07/24 02:43:42;;;;;;;4.13;3.73;;;;;;;;;;5075227;28;20205;-83
2022/07/24 02:46:11;;;;;;;7.67;5.90;;;;;;;;;;5075062;28;20206;-83
2022/07/24 02:48:41;;;;;;;12.93;6.23;;;;;;;;;;5076557;28;20241;-83
2022/07/24 02:51:10;;;;;;;9.00;6.00;;;;;;;;;;5075367;28;20208;-83
2022/07/24 02:53:38;;;;;;;13.83;5.70;;;;;;;;;;5092057;28;20242;-83
2022/07/24 02:56:07;;;;;;;7.73;6.20;;;;;;;;;;5075201;28;20259;-83
2022/07/24 02:58:35;;;;;;;5.13;3.00;;;;;;;;;;5074920;28;20211;-83
2022/07/24 03:01:04;;;;;;;7.03;4.97;;;;;;;;;;5076090;28;20221;-83
2022/07/24 03:03:32;;;;;;;7.13;5.70;;;;;;;;;;5074987;28;20277;-83
2022/07/24 03:06:02;;;;;;;8.10;5.20;;;;;;;;;;5075933;28;20202;-83
2022/07/24 03:08:30;;;;;;;10.37;6.27;;;;;;;;;;5075778;28;20206;-83
2022/07/24 03:10:59;;;;;;;10.60;6.37;;;;;;;;;;5074739;28;20194;-83
2022/07/24 03:13:27;;;;;;;7.23;5.83;;;;;;;;;;5073229;28;20200;-83
2022/07/24 03:15:56;;;;;;;8.30;5.57;;;;;;;;;;5091729;28;20209;-83
2022/07/24 03:18:24;;;;;;;6.60;6.03;;;;;;;;;;5091784;28;20286;-84
2022/07/24 03:20:52;;;;;;;10.57;7.50;;;;;;;;;;5075592;28;20231;-83
2022/07/24 03:23:22;;;;;;;9.43;6.87;;;;;;;;;;5074421;28;20191;-83
2022/07/24 03:25:52;;;;;;;9.87;8.00;;;;;;;;;;5074412;28;20198;-83
2022/07/24 03:28:20;;;;;;;10.47;6.27;;;;;;;;;;5074592;28;20223;-83
2022/07/24 03:30:49;;;;;;;9.20;6.70;;;;;;;;;;5074455;28;20271;-83
2022/07/24 03:33:17;;;;;;;10.00;6.90;;;;;;;;;;5071742;28;20226;-84
2022/07/24 03:35:46;;;;;;;5.70;2.97;;;;;;;;;;5063251;28;20313;-83
2022/07/24 03:38:14;;;;;;;8.00;6.20;;;;;;;;;;5073026;28;20248;-82
2022/07/24 03:40:44;;;;;;;7.50;6.30;;;;;;;;;;5061496;28;20212;-84
2022/07/24 03:43:12;;;;;;;12.97;8.57;;;;;;;;;;5075526;28;20201;-82
2022/07/24 03:45:41;;;;;;;7.37;6.53;;;;;;;;;;5074474;28;20352;-82
2022/07/24 03:48:09;;;;;;;10.87;5.57;;;;;;;;;;5074068;28;20206;-83
2022/07/24 03:50:38;;;;;;;14.13;7.90;;;;;;;;;;5073831;28;20189;-83
2022/07/24 03:53:06;;;;;;;13.33;6.17;;;;;;;;;;5078386;28;20233;-83
2022/07/24 03:55:38;;;;;;;8.80;6.37;;;;;;;;;;5077195;28;20208;-83
2022/07/24 03:58:07;;;;;;;10.30;7.17;;;;;;;;;;5077275;28;20201;-83
2022/07/24 04:00:36;;;;;;;12.87;5.47;;;;;;;;;;5076815;28;20209;-83
2022/07/24 04:03:04;;;;;;;7.90;6.83;;;;;;;;;;5076731;28;20208;-83
2022/07/24 04:05:33;;;;;;;3.70;2.47;;;;;;;;;;5076997;28;20202;-83
2022/07/24 04:08:01;;;;;;;10.97;6.23;;;;;;;;;;5095012;28;20236;-83
2022/07/24 04:10:30;;;;;;;8.80;6.23;;;;;;;;;;5094710;28;20205;-83
2022/07/24 04:12:58;;;;;;;10.70;8.53;;;;;;;;;;5094747;28;20208;-83
2022/07/24 04:15:28;;;;;;;7.60;6.43;;;;;;;;;;5077036;28;20208;-84
2022/07/24 04:17:56;;;;;;;8.13;6.90;;;;;;;;;;5073798;28;20288;-83
2022/07/24 04:20:25;;;;;;;9.00;7.40;;;;;;;;;;5065305;28;20223;-83
2022/07/24 04:22:53;;;;;;;12.37;6.53;;;;;;;;;;5092396;28;20200;-83
2022/07/24 04:25:25;;;;;;;9.57;6.10;;;;;;;;;;5094068;28;20197;-83
2022/07/24 04:27:53;;;;;;;15.40;7.30;;;;;;;;;;5076716;28;20224;-83
2022/07/24 04:30:22;;;;;;;9.80;7.20;;;;;;;;;;5094704;28;20208;-82
2022/07/24 04:32:51;;;;;;;10.97;7.30;;;;;;;;;;5094867;28;20197;-83
2022/07/24 04:35:20;;;;;;;8.63;6.23;;;;;;;;;;5089355;28;20233;-83
2022/07/24 04:37:51;;;;;;;11.83;7.20;;;;;;;;;;5085171;28;20197;-83
2022/07/24 04:40:20;;;;;;;11.27;7.37;;;;;;;;;;5076078;28;20206;-83
2022/07/24 04:42:48;;;;;;;11.73;7.20;;;;;;;;;;5076365;28;20201;-83
2022/07/24 04:45:17;;;;;;;7.67;5.77;;;;;;;;;;5076524;28;20223;-83
2022/07/24 04:47:45;;;;;;;7.77;7.00;;;;;;;;;;5076344;28;20206;-83
2022/07/24 04:50:15;;;;;;;14.83;10.00;;;;;;;;;;5076543;28;20197;-83
2022/07/24 04:52:43;;;;;;;10.20;6.77;;;;;;;;;;5093150;28;20205;-83
2022/07/24 04:55:12;;;;;;;7.63;5.67;;;;;;;;;;5076271;28;20196;-83
2022/07/24 04:57:41;;;;;;;7.30;3.30;;;;;;;;;;5076235;28;20207;-83
2022/07/24 05:00:11;;;;;;;10.97;5.57;;;;;;;;;;5075931;28;20194;-82
2022/07/24 05:02:39;;;;;;;6.20;3.87;;;;;;;;;;5064698;28;20213;-82
2022/07/24 05:05:08;;;;;;;7.43;5.57;;;;;;;;;;5075981;28;20291;-82
2022/07/24 05:07:37;;;;;;;10.83;6.73;;;;;;;;;;5093833;28;20219;-83
2022/07/24 05:10:06;;;;;;;12.50;6.30;;;;;;;;;;5093680;28;20197;-82
2022/07/24 05:12:34;;;;;;;2.77;2.53;;;;;;;;;;5093925;28;20193;-81
2022/07/24 05:15:03;;;;;;;8.13;5.07;;;;;;;;;;5093865;28;20209;-83
2022/07/24 05:17:31;;;;;;;6.37;4.30;;;;;;;;;;5075879;28;20190;-83
2022/07/24 05:20:00;;;;;;;6.20;4.43;;;;;;;;;;5075969;28;20208;-83
2022/07/24 05:22:28;;;;;;;4.90;4.37;;;;;;;;;;5092589;28;20220;-83
2022/07/24 05:24:58;;;;;;;5.07;4.07;;;;;;;;;;5075711;28;20289;-83
2022/07/24 05:27:27;;;;;;;7.53;4.83;;;;;;;;;;5086481;28;20214;-83
2022/07/24 05:29:55;;;;;;;6.90;4.70;;;;;;;;;;5075932;28;20202;-83
2022/07/24 05:32:23;;;;;;;5.40;4.87;;;;;;;;;;5075539;28;20198;-83
2022/07/24 05:34:52;;;;;;;7.37;5.43;;;;;;;;;;5093367;28;20250;-83
2022/07/24 05:37:20;;;;;;;5.03;4.60;;;;;;;;;;5079310;28;20207;-83
2022/07/24 05:39:49;;;;;;;2.23;2.03;;;;;;;;;;5079914;28;20208;-83
2022/07/24 05:42:25;;;;;;;6.80;4.00;;;;;;;;;;5067157;28;20306;-83
2022/07/24 05:44:54;;;;;;;6.20;3.50;;;;;;;;;;5079933;28;20303;-83
2022/07/24 05:47:22;;;;;;;5.30;3.87;;;;;;;;;;5083667;28;20197;-83
2022/07/24 05:49:51;;;;;;;2.70;1.40;;;;;;;;;;5080050;28;20195;-83
2022/07/24 05:52:19;;;;;;;4.80;2.07;;;;;;;;;;5097381;28;20199;-83
2022/07/24 05:54:48;;;;;;;4.87;2.77;;;;;;;;;;5079427;28;20288;-83
2022/07/24 05:57:16;;;;;;;4.97;2.67;;;;;;;;;;5079225;28;20201;-83
2022/07/24 05:59:46;;;;;;;1.57;1.40;;;;;;;;;;5079604;28;20205;-83
2022/07/24 06:02:14;;;;;;;1.33;1.10;;;;;;;;;;5079337;28;20217;-83
2022/07/24 06:04:43;;;;;;;5.23;3.00;;;;;;;;;;5079047;28;20207;-83
2022/07/24 06:07:12;;;;;;;2.60;1.90;;;;;;;;;;5078988;28;20214;-83
2022/07/24 06:09:40;;;;;;;1.83;1.50;;;;;;;;;;5079178;28;20288;-83
2022/07/24 06:12:09;;;;;;;0.93;0.93;;;;;;;;;;5079251;28;20203;-83
2022/07/24 06:14:38;;;;;;;8.40;3.17;;;;;;;;;;5078996;28;20210;-83
2022/07/24 06:17:07;;;;;;;3.10;2.10;;;;;;;;;;5097044;28;20199;-83
2022/07/24 06:19:36;;;;;;;2.70;2.50;;;;;;;;;;5078681;28;20197;-83
2022/07/24 06:22:04;;;;;;;4.27;2.93;;;;;;;;;;5078855;28;20220;-83
2022/07/24 06:24:32;;;;;;;1.37;1.27;;;;;;;;;;5079161;28;20200;-84
2022/07/24 06:27:01;;;;;;;1.23;1.13;;;;;;;;;;5078901;28;20203;-83
2022/07/24 06:29:39;;;;;;;3.07;2.27;;;;;;;;;;5078531;28;20198;-83
2022/07/24 06:32:09;;;;;;;2.53;2.23;;;;;;;;;;5078677;28;20210;-84
2022/07/24 06:34:38;;;;;;;2.10;1.90;;;;;;;;;;5078164;28;20257;-83
2022/07/24 06:37:06;;;;;;;4.43;1.57;;;;;;;;;;5078258;28;20209;-83
2022/07/24 06:39:34;;;;;;;0.60;0.60;;;;;;;;;;5078437;28;20259;-83
2022/07/24 06:42:03;;;;;;;2.73;1.80;;;;;;;;;;5096526;28;20213;-83
2022/07/24 06:44:32;;;;;;;2.40;1.90;;;;;;;;;;5078275;28;20202;-83
2022/07/24 06:47:01;;;;;;;4.03;2.63;;;;;;;;;;5080921;28;20198;-83
2022/07/24 06:49:31;;;;;;;4.63;2.40;;;;;;;;;;5096061;28;20251;-82
2022/07/24 06:51:59;;;;;;;4.03;1.87;;;;;;;;;;5096144;28;20257;-81
2022/07/24 06:54:27;;;;;;;3.97;2.20;;;;;;;;;;5095997;28;20228;-83
2022/07/24 06:56:56;;;;;;;1.80;1.70;;;;;;;;;;5078142;28;20206;-83
2022/07/24 06:59:24;;;;;;;4.83;2.90;;;;;;;;;;5078005;28;20194;-83
2022/07/24 07:01:53;;;;;;;1.63;1.53;;;;;;;;;;5078055;28;20230;-83
2022/07/24 07:04:21;;;;;;;3.57;2.27;;;;;;;;;;5096116;28;20537;-83
2022/07/24 07:06:51;;;;;;;2.27;1.77;;;;;;;;;;5078139;28;20220;-83
2022/07/24 07:09:19;;;;;;;1.97;1.30;;;;;;;;;;5077960;28;20214;-83
2022/07/24 07:11:48;;;;;;;5.07;2.80;;;;;;;;;;5078227;28;20204;-83
2022/07/24 07:14:19;;;;;;;3.77;2.87;;;;;;;;;;5077780;28;20203;-83
2022/07/24 07:16:48;;;;;;;2.40;2.17;;;;;;;;;;5078227;28;20331;-83
2022/07/24 07:19:16;;;;;;;2.43;1.80;;;;;;;;;;5077629;28;20210;-83
2022/07/24 07:21:44;;;;;;;1.70;1.60;;;;;;;;;;5077769;28;20220;-83
2022/07/24 07:24:14;;;;;;;13.50;1.17;;;;;;;;;;5077362;28;20210;-83
2022/07/24 07:26:43;;;;;;;4.47;2.63;;;;;;;;;;5095695;28;20278;-83
2022/07/24 07:29:11;;;;;;;1.97;1.53;;;;;;;;;;5077387;28;20208;-83
2022/07/24 07:31:39;;;;;;;0.93;0.93;;;;;;;;;;5095399;28;20216;-83
2022/07/24 07:34:08;;;;;;;3.53;2.13;;;;;;;;;;5094999;28;20594;-82
2022/07/24 07:36:37;;;;;;;1.63;1.13;;;;;;;;;;5077788;28;20202;-83
2022/07/24 07:39:05;;;;;;;3.30;2.67;;;;;;;;;;5095260;28;20241;-83
2022/07/24 07:41:36;;;;;;;4.07;3.40;;;;;;;;;;5077114;28;20211;-83
2022/07/24 07:44:05;;;;;;;5.43;2.90;;;;;;;;;;5077492;28;20214;-83
2022/07/24 07:46:35;;;;;;;2.23;1.53;;;;;;;;;;5077343;28;20333;-83
2022/07/24 07:49:04;;;;;;;3.37;2.03;;;;;;;;;;5077275;28;20223;-82
2022/07/24 07:51:33;;;;;;;1.97;1.80;;;;;;;;;;5077075;28;20263;-83
2022/07/24 07:54:02;;;;;;;0.90;0.90;;;;;;;;;;5077343;28;20255;-82
2022/07/24 07:56:32;;;;;;;5.67;3.93;;;;;;;;;;5076977;28;20198;-83
2022/07/24 07:59:02;;;;;;;1.70;1.27;;;;;;;;;;5076234;28;20197;-83
2022/07/24 08:01:31;;;;;;;1.60;1.40;;;;;;;;;;5076900;28;20206;-83
2022/07/24 08:03:59;;;;;;;3.10;2.10;;;;;;;;;;5076617;28;20218;-82
2022/07/24 08:06:28;;;;;;;1.53;1.43;;;;;;;;;;5077155;28;20282;-83
2022/07/24 08:08:57;;;;;;;2.87;1.87;;;;;;;;;;5093765;28;20211;-83
2022/07/24 08:11:26;;;;;;;1.30;1.20;;;;;;;;;;5076770;28;20196;-83
2022/07/24 08:13:55;;;;;;;1.97;1.40;;;;;;;;;;5076498;28;20197;-83
2022/07/24 08:16:25;;;;;;;1.80;1.57;;;;;;;;;;5076680;28;20195;-83
2022/07/24 08:18:53;;;;;;;2.80;1.27;;;;;;;;;;5094447;28;20192;-82
2022/07/24 08:21:22;;;;;;;2.03;1.50;;;;;;;;;;5077159;28;20206;-82
2022/07/24 08:23:50;;;;;;;1.83;1.33;;;;;;;;;;5076779;28;20210;-82
2022/07/24 08:26:19;;;;;;;1.77;1.67;;;;;;;;;;5076258;28;20212;-82
2022/07/24 08:28:47;;;;;;;1.57;1.40;;;;;;;;;;5094441;28;20199;-82
2022/07/24 08:31:16;;;;;;;0.90;0.90;;;;;;;;;;5062501;28;20198;-82
2022/07/24 08:33:46;;;;;;;0.87;0.87;;;;;;;;;;5094048;28;20203;-83
2022/07/24 08:36:14;;;;;;;1.33;1.23;;;;;;;;;;5076175;28;20231;-83
2022/07/24 08:38:42;;;;;;;2.47;2.07;;;;;;;;;;5076448;28;20215;-83
2022/07/24 08:41:11;;;;;;;1.17;1.07;;;;;;;;;;5076159;28;20195;-83
2022/07/24 08:43:39;;;;;;;4.00;2.00;;;;;;;;;;5094014;28;20277;-83
2022/07/24 08:46:09;;;;;;;0.90;0.90;;;;;;;;;;5076249;28;20213;-83
2022/07/24 08:48:39;;;;;;;1.37;1.00;;;;;;;;;;5076190;28;20227;-83
2022/07/24 08:51:09;;;;;;;0.90;0.90;;;;;;;;;;5076034;28;20251;-83
2022/07/24 08:53:37;;;;;;;1.63;0.93;;;;;;;;;;5075942;28;20233;-83
2022/07/24 08:56:06;;;;;;;2.90;2.40;;;;;;;;;;5076269;28;20205;-83
2022/07/24 08:58:37;;;;;;;2.17;1.87;;;;;;;;;;5076022;28;20195;-83
2022/07/24 09:01:06;;;;;;;1.90;1.60;;;;;;;;;;5075649;28;20211;-83
2022/07/24 09:03:42;;;;;;;4.10;2.17;;;;;;;;;;5082612;28;20215;-83
2022/07/24 09:06:13;;;;;;;2.67;2.43;;;;;;;;;;5076191;28;20200;-83
2022/07/24 09:08:41;;;;;;;2.50;1.00;;;;;;;;;;5092916;28;20216;-83
2022/07/24 09:11:10;;;;;;;1.20;1.10;;;;;;;;;;5093816;28;20195;-83
2022/07/24 09:16:36;;;;;;;3.07;1.80;;;;;;;;;;5011787;28;20203;-83
2022/07/24 09:19:07;;;;;;;2.53;1.60;;;;;;;;;;5076195;28;20240;-83
2022/07/24 09:21:43;;;;;;;2.00;1.90;;;;;;;;;;5076032;28;20205;-83
2022/07/24 09:24:15;;;;;;;3.80;2.20;;;;;;;;;;5061499;28;20251;-83
2022/07/24 09:26:47;;;;;;;1.70;1.60;;;;;;;;;;5075911;28;20233;-83
2022/07/24 09:29:17;;;;;;;2.77;1.63;;;;;;;;;;5075461;28;20203;-84
2022/07/24 09:31:52;;;;;;;2.00;1.80;;;;;;;;;;5075393;28;20207;-83
2022/07/24 09:34:21;;;;;;;1.90;1.20;;;;;;;;;;5065303;28;20224;-83
2022/07/24 09:37:01;;;;;;;1.23;1.13;;;;;;;;;;5072898;28;20205;-83
2022/07/24 09:39:31;;;;;;;1.77;1.20;;;;;;;;;;5093333;28;20221;-83
2022/07/24 09:42:01;;;;;;;1.97;1.70;;;;;;;;;;5075904;28;20222;-83
2022/07/24 09:44:30;;;;;;;2.67;2.20;;;;;;;;;;5075397;28;20221;-83
2022/07/24 09:46:59;;;;;;;3.07;1.60;;;;;;;;;;5075726;28;20200;-83
2022/07/24 09:49:28;;;;;;;2.03;1.23;;;;;;;;;;5093581;28;20205;-83
2022/07/24 09:52:15;;;;;;;2.47;1.10;;;;;;;;;;5075512;28;20212;-84
2022/07/24 09:54:44;;;;;;;0.97;0.97;;;;;;;;;;5093071;28;20236;-83
2022/07/24 09:57:17;;;;;;;1.87;1.77;;;;;;;;;;5075436;28;20189;-83
2022/07/24 09:59:48;;;;;;;2.10;1.53;;;;;;;;;;5075547;28;20199;-83
2022/07/24 10:02:22;;;;;;;4.13;2.40;;;;;;;;;;5075350;28;20399;-82
2022/07/24 10:04:51;;;;;;;1.17;1.07;;;;;;;;;;5075672;28;20221;-83
2022/07/24 10:07:22;;;;;;;1.83;1.73;;;;;;;;;;5092739;28;20194;-82
2022/07/24 10:09:51;;;;;;;1.93;1.67;;;;;;;;;;5075194;28;20215;-83
2022/07/24 10:12:20;;;;;;;1.27;1.17;;;;;;;;;;5074991;28;20266;-82
2022/07/24 10:14:50;;;;;;;2.07;1.13;;;;;;;;;;5075659;28;20204;-83
2022/07/24 10:17:19;;;;;;;1.43;1.30;;;;;;;;;;5092823;28;20201;-83
2022/07/24 10:19:52;;;;;;;2.63;1.80;;;;;;;;;;5075283;28;20198;-83
2022/07/24 10:22:24;;;;;;;3.57;2.10;;;;;;;;;;5076742;28;20193;-83
2022/07/24 10:24:56;;;;;;;2.70;1.20;;;;;;;;;;5078852;28;20307;-83
2022/07/24 10:27:27;;;;;;;0.87;0.83;;;;;;;;;;5078938;28;20205;-83
2022/07/24 10:29:57;;;;;;;0.73;0.73;;;;;;;;;;5083267;28;20206;-83
2022/07/24 10:32:26;;;;;;;2.13;2.00;;;;;;;;;;5096565;28;20213;-83
2022/07/24 10:35:01;;;;;;;1.30;1.20;;;;;;;;;;5096546;28;20239;-83
2022/07/24 10:37:34;;;;;;;1.30;1.20;;;;;;;;;;5078530;28;20193;-83
2022/07/24 10:40:10;;;;;;;1.37;1.27;;;;;;;;;;5096305;28;20261;-83
2022/07/24 10:42:53;;;;;;;1.97;1.67;;;;;;;;;;5096726;28;20207;-83
2022/07/24 10:45:22;;;;;;;1.47;1.37;;;;;;;;;;5094564;28;20221;-83
2022/07/24 10:47:56;;;;;;;1.23;1.20;;;;;;;;;;5078511;28;20193;-83
2022/07/24 10:50:25;;;;;;;1.13;1.03;;;;;;;;;;5078315;28;20197;-83
2022/07/24 10:52:57;;;;;;;2.83;1.83;;;;;;;;;;5096116;28;20273;-83
2022/07/24 10:55:35;;;;;;;4.60;1.57;;;;;;;;;;5078330;28;20200;-83
2022/07/24 10:58:13;;;;;;;2.83;1.93;;;;;;;;;;5096190;28;20204;-83
2022/07/24 11:00:43;;;;;;;3.60;1.73;;;;;;;;;;5077966;28;20246;-83
2022/07/24 11:03:20;;;;;;;3.37;1.57;;;;;;;;;;5078231;28;20201;-83
2022/07/24 11:06:03;;;;;;;1.30;1.20;;;;;;;;;;5095838;28;20197;-83
2022/07/24 11:08:34;;;;;;;1.90;1.80;;;;;;;;;;5095863;28;20198;-83
2022/07/24 11:11:13;;;;;;;1.87;1.73;;;;;;;;;;5095893;28;20213;-83
2022/07/24 11:13:43;;;;;;;2.57;1.83;;;;;;;;;;5078293;28;20204;-83
2022/07/24 11:16:19;;;;;;;2.77;2.10;;;;;;;;;;5081823;28;20205;-83
2022/07/24 11:19:08;;;;;;;1.60;1.50;;;;;;;;;;5078154;28;20214;-83
2022/07/24 11:21:38;;;;;;;4.60;1.83;;;;;;;;;;5095711;28;20193;-83
2022/07/24 11:24:19;;;;;;;3.47;2.23;;;;;;;;;;5077887;28;20219;-83
2022/07/24 11:26:48;;;;;;;4.03;1.40;;;;;;;;;;5095730;28;20209;-83
2022/07/24 11:29:17;;;;;;;1.03;0.83;;;;;;;;;;5089979;28;20206;-83
2022/07/24 11:31:46;;;;;;;1.73;1.63;;;;;;;;;;5077840;28;20213;-83
2022/07/24 11:34:15;;;;;;;1.90;1.40;;;;;;;;;;5093439;28;20193;-84
2022/07/24 11:36:47;;;;;;;0.63;0.63;;;;;;;;;;5077643;28;20217;-84
2022/07/24 11:39:18;;;;;;;0.90;0.90;;;;;;;;;;5095203;28;20198;-83
2022/07/24 11:41:47;;;;;;;0.93;0.93;;;;;;;;;;5077449;28;20197;-84
2022/07/24 11:44:15;;;;;;;1.13;1.07;;;;;;;;;;5077410;28;20214;-83
2022/07/24 11:46:44;;;;;;;2.30;1.20;;;;;;;;;;5063108;28;20207;-84
2022/07/24 11:49:12;;;;;;;2.57;1.80;;;;;;;;;;5077488;28;20198;-83
2022/07/24 11:51:44;;;;;;;1.47;1.17;;;;;;;;;;5077375;28;20208;-83
2022/07/24 11:54:13;;;;;;;1.00;0.90;;;;;;;;;;5081248;28;20238;-83
2022/07/24 11:56:43;;;;;;;1.87;1.70;;;;;;;;;;5077498;28;20194;-84
2022/07/24 11:59:22;;;;;;;4.23;2.47;;;;;;;;;;5060540;28;20226;-83
2022/07/24 12:01:51;;;;;;;1.07;0.97;;;;;;;;;;5095061;28;20198;-83
2022/07/24 12:04:23;;;;;;;0.77;0.77;;;;;;;;;;5076845;28;20223;-83
2022/07/24 12:06:51;;;;;;;2.20;1.00;;;;;;;;;;5077078;28;20211;-83
2022/07/24 12:09:20;;;;;;;1.43;1.33;;;;;;;;;;5094543;28;20211;-84
2022/07/24 12:11:51;;;;;;;7.30;2.17;;;;;;;;;;5094746;28;20203;-83
2022/07/24 12:14:22;;;;;;;1.97;1.77;;;;;;;;;;5076942;28;20254;-83
2022/07/24 12:16:54;;;;;;;3.50;1.27;;;;;;;;;;5094861;28;20203;-83
2022/07/24 12:19:24;;;;;;;1.47;1.30;;;;;;;;;;5076588;28;20206;-83
2022/07/24 12:21:53;;;;;;;1.90;1.80;;;;;;;;;;5076643;28;20199;-83
2022/07/24 12:24:22;;;;;;;1.70;1.60;;;;;;;;;;5076724;28;20210;-83
2022/07/24 12:26:57;;;;;;;4.03;3.00;;;;;;;;;;5076474;28;20208;-83
2022/07/24 12:29:26;;;;;;;5.27;2.63;;;;;;;;;;5076514;28;20204;-84
2022/07/24 12:32:13;;;;;;;2.13;1.93;;;;;;;;;;5094640;28;20245;-83
2022/07/24 12:34:42;;;;;;;3.30;1.37;;;;;;;;;;5076409;28;20223;-83
2022/07/24 12:37:31;;;;;;;1.97;1.43;;;;;;;;;;5076502;28;20203;-83
2022/07/24 12:39:59;;;;;;;1.87;1.17;;;;;;;;;;5094144;28;20269;-83
2022/07/24 12:42:33;;;;;;;1.37;1.27;;;;;;;;;;5094150;28;20204;-83
2022/07/24 12:45:09;;;;;;;1.70;1.40;;;;;;;;;;5076328;28;20227;-83
2022/07/24 12:47:52;;;;;;;2.37;2.17;;;;;;;;;;5093883;28;20207;-83
2022/07/24 12:50:27;;;;;;;3.67;3.30;;;;;;;;;;5094118;28;20184;-83
2022/07/24 12:53:18;;;;;;;2.97;1.40;;;;;;;;;;5093571;28;20268;-83
2022/07/24 12:56:00;;;;;;;1.27;1.13;;;;;;;;;;5076088;28;20283;-83
2022/07/24 12:58:30;;;;;;;1.57;1.47;;;;;;;;;;5076016;28;20200;-83
2022/07/24 13:00:59;;;;;;;2.13;1.93;;;;;;;;;;5079328;28;20212;-83
2022/07/24 13:03:28;;;;;;;2.10;1.63;;;;;;;;;;5076031;28;20242;-82
2022/07/24 13:05:57;;;;;;;1.67;1.40;;;;;;;;;;5075959;28;20218;-82
2022/07/24 13:08:26;;;;;;;1.40;1.30;;;;;;;;;;5093893;28;20196;-82
2022/07/24 13:10:55;;;;;;;4.70;1.60;;;;;;;;;;5076117;28;20234;-82
2022/07/24 13:13:24;;;;;;;1.63;1.53;;;;;;;;;;5076102;28;20204;-82
2022/07/24 13:15:53;;;;;;;1.47;1.37;;;;;;;;;;5075971;28;20296;-83
2022/07/24 13:18:22;;;;;;;2.33;1.30;;;;;;;;;;5075962;28;20292;-82
2022/07/24 13:20:50;;;;;;;1.13;1.03;;;;;;;;;;5075743;28;20204;-83
2022/07/24 13:23:18;;;;;;;1.10;1.03;;;;;;;;;;5075825;28;20193;-83
2022/07/24 13:25:47;;;;;;;3.70;2.70;;;;;;;;;;5075440;28;20239;-83
2022/07/24 13:28:16;;;;;;;3.43;2.43;;;;;;;;;;5075510;28;20199;-83
2022/07/24 13:30:44;;;;;;;4.17;2.63;;;;;;;;;;5075634;28;20204;-83
2022/07/24 13:33:14;;;;;;;1.27;1.17;;;;;;;;;;5091049;28;20189;-83
2022/07/24 13:35:42;;;;;;;1.50;1.40;;;;;;;;;;5081954;28;20221;-83
2022/07/24 13:38:12;;;;;;;1.40;1.30;;;;;;;;;;5075599;28;20288;-84
2022/07/24 13:40:41;;;;;;;2.33;1.67;;;;;;;;;;5075736;28;20207;-83
2022/07/24 13:43:09;;;;;;;1.80;1.60;;;;;;;;;;5075405;28;20201;-83
2022/07/24 13:45:38;;;;;;;1.53;1.43;;;;;;;;;;5061090;28;20212;-83
2022/07/24 13:48:06;;;;;;;4.07;2.33;;;;;;;;;;5093520;28;20203;-83
2022/07/24 13:50:36;;;;;;;3.60;2.23;;;;;;;;;;5075161;28;20292;-83
2022/07/24 13:53:05;;;;;;;1.40;1.30;;;;;;;;;;5075529;28;20209;-83
2022/07/24 13:55:33;;;;;;;3.53;2.60;;;;;;;;;;5075433;28;20204;-84
2022/07/24 13:58:02;;;;;;;2.47;1.83;;;;;;;;;;5078073;28;20197;-84
2022/07/24 14:00:30;;;;;;;1.37;1.27;;;;;;;;;;5079484;28;20196;-83
2022/07/24 14:02:59;;;;;;;1.83;1.70;;;;;;;;;;5097712;28;20243;-83
2022/07/24 14:05:48;;;;;;;2.10;1.90;;;;;;;;;;5079067;28;20238;-83
2022/07/24 14:08:17;;;;;;;5.27;2.70;;;;;;;;;;5097067;28;20208;-84
2022/07/24 14:10:45;;;;;;;3.23;1.97;;;;;;;;;;5097149;28;20290;-83
2022/07/24 14:13:13;;;;;;;1.27;1.10;;;;;;;;;;5079368;28;20205;-83
2022/07/24 14:15:42;;;;;;;3.50;2.67;;;;;;;;;;5077450;28;20221;-83
2022/07/24 14:18:11;;;;;;;3.10;2.10;;;;;;;;;;5097142;28;20205;-83
2022/07/24 14:20:39;;;;;;;2.27;2.10;;;;;;;;;;5096880;28;20201;-83
2022/07/24 14:23:09;;;;;;;2.93;2.60;;;;;;;;;;5079191;28;20284;-83
2022/07/24 14:25:37;;;;;;;1.03;0.73;;;;;;;;;;5078943;28;20217;-83
2022/07/24 14:28:06;;;;;;;1.73;1.63;;;;;;;;;;5096837;28;20204;-83
2022/07/24 14:30:34;;;;;;;4.17;2.27;;;;;;;;;;5096648;28;20205;-82
2022/07/24 14:33:03;;;;;;;0.60;0.60;;;;;;;;;;5096584;28;20208;-83
2022/07/24 14:35:32;;;;;;;2.20;2.07;;;;;;;;;;5065294;28;20225;-82
2022/07/24 14:38:00;;;;;;;2.67;2.43;;;;;;;;;;5078879;28;20196;-83
2022/07/24 14:40:30;;;;;;;4.47;3.03;;;;;;;;;;5096316;28;20280;-82
2022/07/24 14:42:59;;;;;;;3.40;2.00;;;;;;;;;;5078935;28;20196;-82
2022/07/24 14:45:27;;;;;;;2.70;2.30;;;;;;;;;;5078137;28;20239;-82
2022/07/24 14:47:55;;;;;;;1.30;1.20;;;;;;;;;;5096549;28;20201;-83
2022/07/24 14:50:24;;;;;;;3.90;2.57;;;;;;;;;;5096511;28;20202;-84
2022/07/24 14:52:54;;;;;;;2.50;2.30;;;;;;;;;;5096253;28;20200;-83
2022/07/24 14:55:23;;;;;;;4.20;2.40;;;;;;;;;;5095769;28;20241;-83
2022/07/24 14:57:52;;;;;;;2.83;2.40;;;;;;;;;;5096353;28;20279;-83
2022/07/24 15:00:21;;;;;;;0.50;0.50;;;;;;;;;;5078269;28;20204;-83